sensor_id;sensor_type;location;lat;lon;timestamp;P1;durP1;ratioP1;P2;durP2;ratioP2
22111;SDS011;11222;50.872;4.312;2023-07-02T00:00:29;29.27;;;16.60;;
22111;SDS011;11222;50.872;4.312;2023-07-02T00:02:54;29.52;;;16.80;;
22111;SDS011;11222;50.872;4.312;2023-07-02T00:05:20;34.10;;;17.02;;
22111;SDS011;11222;50.872;4.312;2023-07-02T00:07:46;29.92;;;17.33;;
22111;SDS011;11222;50.872;4.312;2023-07-02T00:10:11;31.90;;;17.90;;
22111;SDS011;11222;50.872;4.312;2023-07-02T00:12:37;37.97;;;16.98;;
22111;SDS011;11222;50.872;4.312;2023-07-02T00:15:03;36.25;;;18.00;;
22111;SDS011;11222;50.872;4.312;2023-07-02T00:17:29;30.42;;;16.40;;
22111;SDS011;11222;50.872;4.312;2023-07-02T00:19:54;27.08;;;16.73;;
22111;SDS011;11222;50.872;4.312;2023-07-02T00:22:20;32.05;;;18.15;;
22111;SDS011;11222;50.872;4.312;2023-07-02T00:24:46;32.03;;;18.52;;
22111;SDS011;11222;50.872;4.312;2023-07-02T00:27:12;36.88;;;17.55;;
22111;SDS011;11222;50.872;4.312;2023-07-02T00:29:37;32.85;;;17.38;;
22111;SDS011;11222;50.872;4.312;2023-07-02T00:32:03;35.72;;;18.38;;
22111;SDS011;11222;50.872;4.312;2023-07-02T00:34:29;34.17;;;19.08;;
22111;SDS011;11222;50.872;4.312;2023-07-02T00:36:55;39.58;;;18.67;;
22111;SDS011;11222;50.872;4.312;2023-07-02T00:39:20;34.33;;;17.98;;
22111;SDS011;11222;50.872;4.312;2023-07-02T00:41:46;36.30;;;18.50;;
22111;SDS011;11222;50.872;4.312;2023-07-02T00:44:12;34.28;;;19.05;;
22111;SDS011;11222;50.872;4.312;2023-07-02T00:46:38;37.80;;;19.35;;
22111;SDS011;11222;50.872;4.312;2023-07-02T00:49:04;38.35;;;19.20;;
22111;SDS011;11222;50.872;4.312;2023-07-02T00:51:30;41.88;;;19.65;;
22111;SDS011;11222;50.872;4.312;2023-07-02T00:53:57;39.78;;;19.50;;
22111;SDS011;11222;50.872;4.312;2023-07-02T00:56:24;34.95;;;19.67;;
22111;SDS011;11222;50.872;4.312;2023-07-02T00:58:51;34.50;;;18.83;;
22111;SDS011;11222;50.872;4.312;2023-07-02T01:01:18;36.08;;;19.70;;
22111;SDS011;11222;50.872;4.312;2023-07-02T01:04:02;41.05;;;20.15;;
22111;SDS011;11222;50.872;4.312;2023-07-02T01:06:30;36.85;;;20.13;;
22111;SDS011;11222;50.872;4.312;2023-07-02T01:08:58;36.50;;;20.55;;
22111;SDS011;11222;50.872;4.312;2023-07-02T01:11:27;36.13;;;19.85;;
22111;SDS011;11222;50.872;4.312;2023-07-02T01:13:57;38.45;;;20.30;;
22111;SDS011;11222;50.872;4.312;2023-07-02T01:16:27;41.05;;;20.15;;
22111;SDS011;11222;50.872;4.312;2023-07-02T01:18:55;35.80;;;20.48;;
22111;SDS011;11222;50.872;4.312;2023-07-02T01:21:23;36.78;;;20.95;;
22111;SDS011;11222;50.872;4.312;2023-07-02T01:23:49;40.40;;;20.90;;
22111;SDS011;11222;50.872;4.312;2023-07-02T01:26:15;38.65;;;21.08;;
22111;SDS011;11222;50.872;4.312;2023-07-02T01:28:41;43.90;;;21.48;;
22111;SDS011;11222;50.872;4.312;2023-07-02T01:31:07;42.70;;;21.98;;
22111;SDS011;11222;50.872;4.312;2023-07-02T01:33:32;38.47;;;21.02;;
22111;SDS011;11222;50.872;4.312;2023-07-02T01:35:58;42.30;;;21.50;;
22111;SDS011;11222;50.872;4.312;2023-07-02T01:38:23;39.63;;;21.50;;
22111;SDS011;11222;50.872;4.312;2023-07-02T01:40:49;43.95;;;21.50;;
22111;SDS011;11222;50.872;4.312;2023-07-02T01:43:15;42.13;;;20.98;;
22111;SDS011;11222;50.872;4.312;2023-07-02T01:45:41;43.50;;;21.58;;
22111;SDS011;11222;50.872;4.312;2023-07-02T01:48:07;40.80;;;20.85;;
22111;SDS011;11222;50.872;4.312;2023-07-02T01:50:33;37.83;;;21.35;;
22111;SDS011;11222;50.872;4.312;2023-07-02T01:52:58;44.40;;;21.48;;
22111;SDS011;11222;50.872;4.312;2023-07-02T01:55:24;40.25;;;21.50;;
22111;SDS011;11222;50.872;4.312;2023-07-02T01:57:50;46.55;;;23.10;;
22111;SDS011;11222;50.872;4.312;2023-07-02T02:00:16;43.45;;;23.23;;
22111;SDS011;11222;50.872;4.312;2023-07-02T02:02:42;43.28;;;21.65;;
22111;SDS011;11222;50.872;4.312;2023-07-02T02:05:08;44.25;;;23.30;;
22111;SDS011;11222;50.872;4.312;2023-07-02T02:07:35;45.08;;;22.92;;
22111;SDS011;11222;50.872;4.312;2023-07-02T02:10:01;42.20;;;22.25;;
22111;SDS011;11222;50.872;4.312;2023-07-02T02:12:28;41.97;;;22.45;;
22111;SDS011;11222;50.872;4.312;2023-07-02T02:14:55;44.58;;;22.73;;
22111;SDS011;11222;50.872;4.312;2023-07-02T02:17:21;42.40;;;22.88;;
22111;SDS011;11222;50.872;4.312;2023-07-02T02:19:48;46.60;;;23.92;;
22111;SDS011;11222;50.872;4.312;2023-07-02T02:22:14;41.78;;;23.30;;
22111;SDS011;11222;50.872;4.312;2023-07-02T02:24:40;52.47;;;23.00;;
22111;SDS011;11222;50.872;4.312;2023-07-02T02:27:06;44.55;;;22.38;;
22111;SDS011;11222;50.872;4.312;2023-07-02T02:29:32;41.85;;;23.27;;
22111;SDS011;11222;50.872;4.312;2023-07-02T02:31:58;45.67;;;23.40;;
22111;SDS011;11222;50.872;4.312;2023-07-02T02:34:23;42.88;;;22.75;;
22111;SDS011;11222;50.872;4.312;2023-07-02T02:36:49;44.28;;;22.67;;
22111;SDS011;11222;50.872;4.312;2023-07-02T02:39:15;48.50;;;23.67;;
22111;SDS011;11222;50.872;4.312;2023-07-02T02:41:40;44.47;;;22.88;;
22111;SDS011;11222;50.872;4.312;2023-07-02T02:44:06;44.20;;;23.52;;
22111;SDS011;11222;50.872;4.312;2023-07-02T02:46:32;46.83;;;23.65;;
22111;SDS011;11222;50.872;4.312;2023-07-02T02:48:58;48.45;;;23.88;;
22111;SDS011;11222;50.872;4.312;2023-07-02T02:51:23;46.05;;;22.88;;
22111;SDS011;11222;50.872;4.312;2023-07-02T02:53:49;48.20;;;23.15;;
22111;SDS011;11222;50.872;4.312;2023-07-02T02:56:15;53.58;;;25.00;;
22111;SDS011;11222;50.872;4.312;2023-07-02T02:58:41;45.95;;;22.98;;
22111;SDS011;11222;50.872;4.312;2023-07-02T03:01:06;47.80;;;23.02;;
22111;SDS011;11222;50.872;4.312;2023-07-02T03:03:36;49.45;;;23.40;;
22111;SDS011;11222;50.872;4.312;2023-07-02T03:06:09;50.05;;;25.65;;
22111;SDS011;11222;50.872;4.312;2023-07-02T03:08:36;50.03;;;23.23;;
22111;SDS011;11222;50.872;4.312;2023-07-02T03:11:01;52.05;;;25.00;;
22111;SDS011;11222;50.872;4.312;2023-07-02T03:13:27;49.10;;;23.70;;
22111;SDS011;11222;50.872;4.312;2023-07-02T03:15:52;53.35;;;24.70;;
22111;SDS011;11222;50.872;4.312;2023-07-02T03:18:18;53.47;;;25.25;;
22111;SDS011;11222;50.872;4.312;2023-07-02T03:20:44;52.00;;;25.25;;
22111;SDS011;11222;50.872;4.312;2023-07-02T03:23:10;54.08;;;23.95;;
22111;SDS011;11222;50.872;4.312;2023-07-02T03:25:36;53.95;;;24.83;;
22111;SDS011;11222;50.872;4.312;2023-07-02T03:28:02;49.58;;;24.60;;
22111;SDS011;11222;50.872;4.312;2023-07-02T03:30:27;49.13;;;24.27;;
22111;SDS011;11222;50.872;4.312;2023-07-02T03:32:53;56.00;;;25.55;;
22111;SDS011;11222;50.872;4.312;2023-07-02T03:35:18;44.35;;;23.67;;
22111;SDS011;11222;50.872;4.312;2023-07-02T03:37:44;55.13;;;25.50;;
22111;SDS011;11222;50.872;4.312;2023-07-02T03:40:11;57.63;;;25.33;;
22111;SDS011;11222;50.872;4.312;2023-07-02T03:42:36;60.55;;;26.77;;
22111;SDS011;11222;50.872;4.312;2023-07-02T03:45:02;50.33;;;25.23;;
22111;SDS011;11222;50.872;4.312;2023-07-02T03:47:28;58.35;;;25.85;;
22111;SDS011;11222;50.872;4.312;2023-07-02T03:49:54;50.00;;;24.85;;
22111;SDS011;11222;50.872;4.312;2023-07-02T03:52:19;59.47;;;26.02;;
22111;SDS011;11222;50.872;4.312;2023-07-02T03:54:45;54.30;;;24.92;;
22111;SDS011;11222;50.872;4.312;2023-07-02T03:57:11;52.20;;;26.65;;
22111;SDS011;11222;50.872;4.312;2023-07-02T03:59:36;52.47;;;25.60;;
22111;SDS011;11222;50.872;4.312;2023-07-02T04:02:02;58.38;;;27.00;;
22111;SDS011;11222;50.872;4.312;2023-07-02T04:04:28;62.47;;;27.13;;
22111;SDS011;11222;50.872;4.312;2023-07-02T04:06:53;58.03;;;27.92;;
22111;SDS011;11222;50.872;4.312;2023-07-02T04:09:19;58.03;;;28.05;;
22111;SDS011;11222;50.872;4.312;2023-07-02T04:11:45;57.28;;;28.38;;
22111;SDS011;11222;50.872;4.312;2023-07-02T04:14:10;59.75;;;28.65;;
22111;SDS011;11222;50.872;4.312;2023-07-02T04:16:36;60.00;;;28.90;;
22111;SDS011;11222;50.872;4.312;2023-07-02T04:19:01;61.40;;;29.27;;
22111;SDS011;11222;50.872;4.312;2023-07-02T04:21:27;57.55;;;29.10;;
22111;SDS011;11222;50.872;4.312;2023-07-02T04:23:53;62.45;;;28.80;;
22111;SDS011;11222;50.872;4.312;2023-07-02T04:26:18;62.90;;;28.77;;
22111;SDS011;11222;50.872;4.312;2023-07-02T04:28:44;62.40;;;27.73;;
22111;SDS011;11222;50.872;4.312;2023-07-02T04:31:10;63.50;;;29.17;;
22111;SDS011;11222;50.872;4.312;2023-07-02T04:33:35;63.67;;;29.52;;
22111;SDS011;11222;50.872;4.312;2023-07-02T04:36:04;68.20;;;30.00;;
22111;SDS011;11222;50.872;4.312;2023-07-02T04:38:30;61.83;;;29.95;;
22111;SDS011;11222;50.872;4.312;2023-07-02T04:40:56;64.75;;;29.95;;
22111;SDS011;11222;50.872;4.312;2023-07-02T04:43:29;68.93;;;29.17;;
22111;SDS011;11222;50.872;4.312;2023-07-02T04:45:58;71.22;;;30.35;;
22111;SDS011;11222;50.872;4.312;2023-07-02T04:48:24;64.60;;;28.20;;
22111;SDS011;11222;50.872;4.312;2023-07-02T04:50:50;69.55;;;29.42;;
22111;SDS011;11222;50.872;4.312;2023-07-02T04:53:15;66.63;;;30.35;;
22111;SDS011;11222;50.872;4.312;2023-07-02T04:55:41;61.47;;;29.85;;
22111;SDS011;11222;50.872;4.312;2023-07-02T04:58:08;63.47;;;31.30;;
22111;SDS011;11222;50.872;4.312;2023-07-02T05:00:33;64.15;;;30.17;;
22111;SDS011;11222;50.872;4.312;2023-07-02T05:02:59;67.63;;;30.63;;
22111;SDS011;11222;50.872;4.312;2023-07-02T05:05:24;62.70;;;30.70;;
22111;SDS011;11222;50.872;4.312;2023-07-02T05:07:50;58.53;;;28.75;;
22111;SDS011;11222;50.872;4.312;2023-07-02T05:10:16;65.72;;;30.88;;
22111;SDS011;11222;50.872;4.312;2023-07-02T05:12:41;60.78;;;29.70;;
22111;SDS011;11222;50.872;4.312;2023-07-02T05:15:07;62.63;;;30.52;;
22111;SDS011;11222;50.872;4.312;2023-07-02T05:17:33;64.03;;;29.25;;
22111;SDS011;11222;50.872;4.312;2023-07-02T05:20:01;58.50;;;29.10;;
22111;SDS011;11222;50.872;4.312;2023-07-02T05:22:29;61.50;;;30.27;;
22111;SDS011;11222;50.872;4.312;2023-07-02T05:24:54;57.92;;;29.95;;
22111;SDS011;11222;50.872;4.312;2023-07-02T05:27:20;56.30;;;29.00;;
22111;SDS011;11222;50.872;4.312;2023-07-02T05:29:45;60.55;;;29.65;;
22111;SDS011;11222;50.872;4.312;2023-07-02T05:32:11;63.25;;;30.63;;
22111;SDS011;11222;50.872;4.312;2023-07-02T05:34:37;57.88;;;28.70;;
22111;SDS011;11222;50.872;4.312;2023-07-02T05:37:02;61.70;;;29.02;;
22111;SDS011;11222;50.872;4.312;2023-07-02T05:39:28;62.78;;;30.10;;
22111;SDS011;11222;50.872;4.312;2023-07-02T05:41:55;63.50;;;29.70;;
22111;SDS011;11222;50.872;4.312;2023-07-02T05:44:21;62.33;;;29.00;;
22111;SDS011;11222;50.872;4.312;2023-07-02T05:46:47;60.85;;;29.05;;
22111;SDS011;11222;50.872;4.312;2023-07-02T05:49:12;56.95;;;28.55;;
22111;SDS011;11222;50.872;4.312;2023-07-02T05:51:38;60.53;;;28.67;;
22111;SDS011;11222;50.872;4.312;2023-07-02T05:54:04;53.60;;;27.38;;
22111;SDS011;11222;50.872;4.312;2023-07-02T05:56:29;57.30;;;27.02;;
22111;SDS011;11222;50.872;4.312;2023-07-02T05:58:55;60.80;;;28.80;;
22111;SDS011;11222;50.872;4.312;2023-07-02T06:01:20;63.47;;;27.95;;
22111;SDS011;11222;50.872;4.312;2023-07-02T06:03:48;53.53;;;27.23;;
22111;SDS011;11222;50.872;4.312;2023-07-02T06:06:15;54.65;;;27.40;;
22111;SDS011;11222;50.872;4.312;2023-07-02T06:08:40;63.28;;;27.63;;
22111;SDS011;11222;50.872;4.312;2023-07-02T06:11:06;53.25;;;26.48;;
22111;SDS011;11222;50.872;4.312;2023-07-02T06:13:32;58.08;;;28.58;;
22111;SDS011;11222;50.872;4.312;2023-07-02T06:15:57;51.92;;;26.50;;
22111;SDS011;11222;50.872;4.312;2023-07-02T06:18:23;50.97;;;24.80;;
22111;SDS011;11222;50.872;4.312;2023-07-02T06:20:49;51.65;;;25.50;;
22111;SDS011;11222;50.872;4.312;2023-07-02T06:23:15;50.70;;;25.05;;
22111;SDS011;11222;50.872;4.312;2023-07-02T06:25:40;50.53;;;25.42;;
22111;SDS011;11222;50.872;4.312;2023-07-02T06:28:06;54.08;;;25.30;;
22111;SDS011;11222;50.872;4.312;2023-07-02T06:30:32;55.70;;;26.10;;
22111;SDS011;11222;50.872;4.312;2023-07-02T06:32:57;46.92;;;24.63;;
22111;SDS011;11222;50.872;4.312;2023-07-02T06:35:23;52.55;;;25.35;;
22111;SDS011;11222;50.872;4.312;2023-07-02T06:37:49;51.60;;;25.20;;
22111;SDS011;11222;50.872;4.312;2023-07-02T06:40:14;48.03;;;23.77;;
22111;SDS011;11222;50.872;4.312;2023-07-02T06:42:40;50.72;;;23.35;;
22111;SDS011;11222;50.872;4.312;2023-07-02T06:45:06;40.85;;;22.23;;
22111;SDS011;11222;50.872;4.312;2023-07-02T06:47:32;46.78;;;23.15;;
22111;SDS011;11222;50.872;4.312;2023-07-02T06:49:58;43.13;;;21.67;;
22111;SDS011;11222;50.872;4.312;2023-07-02T06:52:24;46.33;;;21.52;;
22111;SDS011;11222;50.872;4.312;2023-07-02T06:54:50;41.75;;;20.55;;
22111;SDS011;11222;50.872;4.312;2023-07-02T06:57:15;35.63;;;19.40;;
22111;SDS011;11222;50.872;4.312;2023-07-02T06:59:41;39.40;;;19.40;;
22111;SDS011;11222;50.872;4.312;2023-07-02T07:02:07;35.55;;;19.08;;
22111;SDS011;11222;50.872;4.312;2023-07-02T07:04:33;30.40;;;17.65;;
22111;SDS011;11222;50.872;4.312;2023-07-02T07:07:01;37.53;;;17.73;;
22111;SDS011;11222;50.872;4.312;2023-07-02T07:09:28;40.55;;;19.13;;
22111;SDS011;11222;50.872;4.312;2023-07-02T07:11:54;37.72;;;18.20;;
22111;SDS011;11222;50.872;4.312;2023-07-02T07:14:19;37.90;;;18.73;;
22111;SDS011;11222;50.872;4.312;2023-07-02T07:16:45;33.33;;;15.25;;
22111;SDS011;11222;50.872;4.312;2023-07-02T07:19:11;32.70;;;15.52;;
22111;SDS011;11222;50.872;4.312;2023-07-02T07:21:36;27.20;;;14.95;;
22111;SDS011;11222;50.872;4.312;2023-07-02T07:24:02;32.35;;;15.05;;
22111;SDS011;11222;50.872;4.312;2023-07-02T07:26:28;26.55;;;13.80;;
22111;SDS011;11222;50.872;4.312;2023-07-02T07:28:53;24.17;;;13.18;;
22111;SDS011;11222;50.872;4.312;2023-07-02T07:31:21;30.75;;;14.70;;
22111;SDS011;11222;50.872;4.312;2023-07-02T07:33:46;28.67;;;17.35;;
22111;SDS011;11222;50.872;4.312;2023-07-02T07:36:12;27.85;;;13.05;;
22111;SDS011;11222;50.872;4.312;2023-07-02T07:38:38;25.42;;;12.65;;
22111;SDS011;11222;50.872;4.312;2023-07-02T07:41:03;29.08;;;14.35;;
22111;SDS011;11222;50.872;4.312;2023-07-02T07:43:29;27.80;;;13.85;;
22111;SDS011;11222;50.872;4.312;2023-07-02T07:45:55;25.13;;;13.35;;
22111;SDS011;11222;50.872;4.312;2023-07-02T07:48:20;27.75;;;13.45;;
22111;SDS011;11222;50.872;4.312;2023-07-02T07:50:46;25.75;;;13.18;;
22111;SDS011;11222;50.872;4.312;2023-07-02T07:53:12;23.20;;;12.65;;
22111;SDS011;11222;50.872;4.312;2023-07-02T07:55:38;23.92;;;12.43;;
22111;SDS011;11222;50.872;4.312;2023-07-02T07:58:03;21.73;;;12.55;;
22111;SDS011;11222;50.872;4.312;2023-07-02T08:00:29;20.10;;;12.07;;
22111;SDS011;11222;50.872;4.312;2023-07-02T08:02:55;21.60;;;12.00;;
22111;SDS011;11222;50.872;4.312;2023-07-02T08:05:21;24.27;;;12.55;;
22111;SDS011;11222;50.872;4.312;2023-07-02T08:07:48;21.88;;;12.30;;
22111;SDS011;11222;50.872;4.312;2023-07-02T08:10:13;23.98;;;11.25;;
22111;SDS011;11222;50.872;4.312;2023-07-02T08:12:39;20.98;;;11.23;;
22111;SDS011;11222;50.872;4.312;2023-07-02T08:15:05;23.13;;;12.77;;
22111;SDS011;11222;50.872;4.312;2023-07-02T08:17:31;23.90;;;12.82;;
22111;SDS011;11222;50.872;4.312;2023-07-02T08:19:57;20.65;;;12.63;;
22111;SDS011;11222;50.872;4.312;2023-07-02T08:22:22;26.08;;;12.68;;
22111;SDS011;11222;50.872;4.312;2023-07-02T08:24:48;24.27;;;13.13;;
22111;SDS011;11222;50.872;4.312;2023-07-02T08:27:15;24.60;;;13.85;;
22111;SDS011;11222;50.872;4.312;2023-07-02T08:29:44;29.20;;;12.35;;
22111;SDS011;11222;50.872;4.312;2023-07-02T08:32:10;20.20;;;12.63;;
22111;SDS011;11222;50.872;4.312;2023-07-02T08:34:36;20.75;;;12.38;;
22111;SDS011;11222;50.872;4.312;2023-07-02T08:37:02;24.77;;;13.60;;
22111;SDS011;11222;50.872;4.312;2023-07-02T08:39:27;26.75;;;12.98;;
22111;SDS011;11222;50.872;4.312;2023-07-02T08:41:53;27.50;;;12.95;;
22111;SDS011;11222;50.872;4.312;2023-07-02T08:44:19;28.48;;;13.55;;
22111;SDS011;11222;50.872;4.312;2023-07-02T08:46:48;24.23;;;13.35;;
22111;SDS011;11222;50.872;4.312;2023-07-02T08:49:16;26.67;;;13.88;;
22111;SDS011;11222;50.872;4.312;2023-07-02T08:51:44;26.45;;;13.27;;
22111;SDS011;11222;50.872;4.312;2023-07-02T08:54:10;27.48;;;13.82;;
22111;SDS011;11222;50.872;4.312;2023-07-02T08:56:36;25.38;;;12.95;;
22111;SDS011;11222;50.872;4.312;2023-07-02T08:59:05;27.40;;;14.25;;
22111;SDS011;11222;50.872;4.312;2023-07-02T09:01:52;26.50;;;14.02;;
22111;SDS011;11222;50.872;4.312;2023-07-02T09:04:19;29.05;;;14.10;;
22111;SDS011;11222;50.872;4.312;2023-07-02T09:06:47;26.10;;;13.40;;
22111;SDS011;11222;50.872;4.312;2023-07-02T09:09:13;28.58;;;13.70;;
22111;SDS011;11222;50.872;4.312;2023-07-02T09:11:50;26.27;;;13.43;;
22111;SDS011;11222;50.872;4.312;2023-07-02T09:17:02;29.40;;;13.93;;
22111;SDS011;11222;50.872;4.312;2023-07-02T09:19:28;27.88;;;13.43;;
22111;SDS011;11222;50.872;4.312;2023-07-02T09:21:56;24.98;;;13.07;;
22111;SDS011;11222;50.872;4.312;2023-07-02T09:24:24;24.63;;;11.90;;
22111;SDS011;11222;50.872;4.312;2023-07-02T09:26:55;25.60;;;12.32;;
22111;SDS011;11222;50.872;4.312;2023-07-02T09:29:23;22.88;;;12.98;;
22111;SDS011;11222;50.872;4.312;2023-07-02T09:31:50;23.40;;;12.23;;
22111;SDS011;11222;50.872;4.312;2023-07-02T09:34:16;24.75;;;12.98;;
22111;SDS011;11222;50.872;4.312;2023-07-02T09:36:42;26.80;;;12.50;;
22111;SDS011;11222;50.872;4.312;2023-07-02T09:39:10;22.92;;;12.15;;
22111;SDS011;11222;50.872;4.312;2023-07-02T09:41:39;25.75;;;13.52;;
22111;SDS011;11222;50.872;4.312;2023-07-02T09:44:07;27.48;;;13.05;;
22111;SDS011;11222;50.872;4.312;2023-07-02T09:46:35;22.88;;;12.20;;
22111;SDS011;11222;50.872;4.312;2023-07-02T09:49:16;25.45;;;12.73;;
22111;SDS011;11222;50.872;4.312;2023-07-02T09:51:45;22.17;;;12.75;;
22111;SDS011;11222;50.872;4.312;2023-07-02T09:54:11;21.55;;;12.32;;
22111;SDS011;11222;50.872;4.312;2023-07-02T09:56:37;29.92;;;13.77;;
22111;SDS011;11222;50.872;4.312;2023-07-02T09:59:04;29.13;;;13.45;;
22111;SDS011;11222;50.872;4.312;2023-07-02T10:01:30;24.02;;;13.52;;
22111;SDS011;11222;50.872;4.312;2023-07-02T10:03:56;26.10;;;12.90;;
22111;SDS011;11222;50.872;4.312;2023-07-02T10:06:21;26.40;;;13.02;;
22111;SDS011;11222;50.872;4.312;2023-07-02T10:08:54;31.85;;;13.93;;
22111;SDS011;11222;50.872;4.312;2023-07-02T10:11:20;23.58;;;12.80;;
22111;SDS011;11222;50.872;4.312;2023-07-02T10:13:45;23.05;;;13.13;;
22111;SDS011;11222;50.872;4.312;2023-07-02T10:16:11;23.23;;;13.18;;
22111;SDS011;11222;50.872;4.312;2023-07-02T10:18:38;22.10;;;12.02;;
22111;SDS011;11222;50.872;4.312;2023-07-02T10:21:14;27.58;;;12.52;;
22111;SDS011;11222;50.872;4.312;2023-07-02T10:23:40;25.02;;;12.88;;
22111;SDS011;11222;50.872;4.312;2023-07-02T10:26:24;23.23;;;12.50;;
22111;SDS011;11222;50.872;4.312;2023-07-02T10:31:24;21.70;;;12.30;;
22111;SDS011;11222;50.872;4.312;2023-07-02T10:33:49;25.40;;;12.55;;
22111;SDS011;11222;50.872;4.312;2023-07-02T10:36:19;23.27;;;11.95;;
22111;SDS011;11222;50.872;4.312;2023-07-02T10:38:47;25.85;;;11.43;;
22111;SDS011;11222;50.872;4.312;2023-07-02T10:41:22;26.63;;;12.57;;
22111;SDS011;11222;50.872;4.312;2023-07-02T10:43:49;24.52;;;11.48;;
22111;SDS011;11222;50.872;4.312;2023-07-02T10:46:18;24.20;;;12.23;;
22111;SDS011;11222;50.872;4.312;2023-07-02T10:48:52;19.60;;;12.05;;
22111;SDS011;11222;50.872;4.312;2023-07-02T10:51:21;20.92;;;11.90;;
22111;SDS011;11222;50.872;4.312;2023-07-02T10:54:02;25.25;;;11.60;;
22111;SDS011;11222;50.872;4.312;2023-07-02T10:56:30;23.52;;;11.70;;
22111;SDS011;11222;50.872;4.312;2023-07-02T10:58:56;22.67;;;12.40;;
22111;SDS011;11222;50.872;4.312;2023-07-02T11:01:29;21.83;;;12.30;;
22111;SDS011;11222;50.872;4.312;2023-07-02T11:03:59;22.25;;;12.30;;
22111;SDS011;11222;50.872;4.312;2023-07-02T11:06:26;25.63;;;12.38;;
22111;SDS011;11222;50.872;4.312;2023-07-02T11:08:53;22.55;;;11.45;;
22111;SDS011;11222;50.872;4.312;2023-07-02T11:11:20;23.35;;;12.02;;
22111;SDS011;11222;50.872;4.312;2023-07-02T11:13:47;24.60;;;12.75;;
22111;SDS011;11222;50.872;4.312;2023-07-02T11:18:49;20.45;;;11.45;;
22111;SDS011;11222;50.872;4.312;2023-07-02T11:21:15;21.40;;;12.15;;
22111;SDS011;11222;50.872;4.312;2023-07-02T11:23:41;19.30;;;11.27;;
22111;SDS011;11222;50.872;4.312;2023-07-02T11:26:07;18.77;;;11.88;;
22111;SDS011;11222;50.872;4.312;2023-07-02T11:28:33;21.00;;;12.27;;
22111;SDS011;11222;50.872;4.312;2023-07-02T11:30:59;19.00;;;12.38;;
22111;SDS011;11222;50.872;4.312;2023-07-02T11:33:37;22.70;;;12.32;;
22111;SDS011;11222;50.872;4.312;2023-07-02T11:36:07;18.88;;;12.00;;
22111;SDS011;11222;50.872;4.312;2023-07-02T11:38:45;18.77;;;12.05;;
22111;SDS011;11222;50.872;4.312;2023-07-02T11:41:10;25.65;;;12.68;;
22111;SDS011;11222;50.872;4.312;2023-07-02T11:43:37;22.08;;;12.80;;
22111;SDS011;11222;50.872;4.312;2023-07-02T11:46:03;21.00;;;12.05;;
22111;SDS011;11222;50.872;4.312;2023-07-02T11:48:29;22.92;;;12.77;;
22111;SDS011;11222;50.872;4.312;2023-07-02T11:50:55;25.45;;;12.02;;
22111;SDS011;11222;50.872;4.312;2023-07-02T11:53:20;21.55;;;12.43;;
22111;SDS011;11222;50.872;4.312;2023-07-02T11:55:46;22.25;;;12.80;;
22111;SDS011;11222;50.872;4.312;2023-07-02T11:58:11;21.02;;;12.20;;
22111;SDS011;11222;50.872;4.312;2023-07-02T12:00:37;21.50;;;12.75;;
22111;SDS011;11222;50.872;4.312;2023-07-02T12:03:03;22.73;;;13.07;;
22111;SDS011;11222;50.872;4.312;2023-07-02T12:05:29;24.33;;;13.52;;
22111;SDS011;11222;50.872;4.312;2023-07-02T12:07:54;21.80;;;13.90;;
22111;SDS011;11222;50.872;4.312;2023-07-02T12:10:20;21.63;;;13.05;;
22111;SDS011;11222;50.872;4.312;2023-07-02T12:12:46;19.98;;;12.75;;
22111;SDS011;11222;50.872;4.312;2023-07-02T12:15:11;21.33;;;12.55;;
22111;SDS011;11222;50.872;4.312;2023-07-02T12:17:37;21.45;;;12.43;;
22111;SDS011;11222;50.872;4.312;2023-07-02T12:20:03;24.23;;;12.40;;
22111;SDS011;11222;50.872;4.312;2023-07-02T12:22:28;20.67;;;12.02;;
22111;SDS011;11222;50.872;4.312;2023-07-02T12:24:54;22.60;;;12.90;;
22111;SDS011;11222;50.872;4.312;2023-07-02T12:27:21;19.70;;;12.07;;
22111;SDS011;11222;50.872;4.312;2023-07-02T12:29:47;17.85;;;10.77;;
22111;SDS011;11222;50.872;4.312;2023-07-02T12:32:13;22.08;;;11.90;;
22111;SDS011;11222;50.872;4.312;2023-07-02T12:34:39;25.95;;;11.60;;
22111;SDS011;11222;50.872;4.312;2023-07-02T12:37:05;20.73;;;11.27;;
22111;SDS011;11222;50.872;4.312;2023-07-02T12:39:31;16.80;;;10.38;;
22111;SDS011;11222;50.872;4.312;2023-07-02T12:41:56;17.05;;;10.90;;
22111;SDS011;11222;50.872;4.312;2023-07-02T12:44:22;21.38;;;11.05;;
22111;SDS011;11222;50.872;4.312;2023-07-02T12:46:48;16.15;;;9.38;;
22111;SDS011;11222;50.872;4.312;2023-07-02T12:49:14;22.15;;;11.00;;
22111;SDS011;11222;50.872;4.312;2023-07-02T12:51:40;21.08;;;10.82;;
22111;SDS011;11222;50.872;4.312;2023-07-02T12:54:05;17.25;;;10.73;;
22111;SDS011;11222;50.872;4.312;2023-07-02T12:56:31;18.55;;;10.77;;
22111;SDS011;11222;50.872;4.312;2023-07-02T12:58:57;20.50;;;11.10;;
22111;SDS011;11222;50.872;4.312;2023-07-02T13:01:22;17.63;;;11.00;;
22111;SDS011;11222;50.872;4.312;2023-07-02T13:03:49;20.83;;;10.90;;
22111;SDS011;11222;50.872;4.312;2023-07-02T13:06:18;20.80;;;11.27;;
22111;SDS011;11222;50.872;4.312;2023-07-02T13:08:44;19.35;;;10.63;;
22111;SDS011;11222;50.872;4.312;2023-07-02T13:11:09;17.42;;;10.70;;
22111;SDS011;11222;50.872;4.312;2023-07-02T13:13:35;18.77;;;10.77;;
22111;SDS011;11222;50.872;4.312;2023-07-02T13:16:01;17.98;;;10.43;;
22111;SDS011;11222;50.872;4.312;2023-07-02T13:18:27;15.63;;;9.75;;
22111;SDS011;11222;50.872;4.312;2023-07-02T13:20:53;22.70;;;11.02;;
22111;SDS011;11222;50.872;4.312;2023-07-02T13:23:18;21.25;;;10.88;;
22111;SDS011;11222;50.872;4.312;2023-07-02T13:25:44;17.02;;;10.48;;
22111;SDS011;11222;50.872;4.312;2023-07-02T13:28:10;16.77;;;10.50;;
22111;SDS011;11222;50.872;4.312;2023-07-02T13:30:36;17.13;;;9.93;;
22111;SDS011;11222;50.872;4.312;2023-07-02T13:33:02;18.98;;;11.02;;
22111;SDS011;11222;50.872;4.312;2023-07-02T13:35:28;15.95;;;10.60;;
22111;SDS011;11222;50.872;4.312;2023-07-02T13:37:56;19.35;;;10.10;;
22111;SDS011;11222;50.872;4.312;2023-07-02T13:40:24;17.48;;;10.32;;
22111;SDS011;11222;50.872;4.312;2023-07-02T13:42:50;20.45;;;11.45;;
22111;SDS011;11222;50.872;4.312;2023-07-02T13:45:16;18.02;;;10.18;;
22111;SDS011;11222;50.872;4.312;2023-07-02T13:47:42;19.25;;;10.65;;
22111;SDS011;11222;50.872;4.312;2023-07-02T13:50:07;15.30;;;9.68;;
22111;SDS011;11222;50.872;4.312;2023-07-02T13:52:33;16.63;;;10.30;;
22111;SDS011;11222;50.872;4.312;2023-07-02T13:54:59;19.10;;;10.38;;
22111;SDS011;11222;50.872;4.312;2023-07-02T13:57:25;16.17;;;10.15;;
22111;SDS011;11222;50.872;4.312;2023-07-02T13:59:51;18.63;;;10.55;;
22111;SDS011;11222;50.872;4.312;2023-07-02T14:02:16;18.30;;;10.32;;
22111;SDS011;11222;50.872;4.312;2023-07-02T14:04:44;17.63;;;10.55;;
22111;SDS011;11222;50.872;4.312;2023-07-02T14:07:11;19.23;;;10.77;;
22111;SDS011;11222;50.872;4.312;2023-07-02T14:09:36;21.63;;;10.05;;
22111;SDS011;11222;50.872;4.312;2023-07-02T14:12:02;18.27;;;10.82;;
22111;SDS011;11222;50.872;4.312;2023-07-02T14:14:28;15.55;;;9.27;;
22111;SDS011;11222;50.872;4.312;2023-07-02T14:16:55;16.95;;;10.07;;
22111;SDS011;11222;50.872;4.312;2023-07-02T14:19:21;18.60;;;9.93;;
22111;SDS011;11222;50.872;4.312;2023-07-02T14:21:46;17.60;;;10.60;;
22111;SDS011;11222;50.872;4.312;2023-07-02T14:24:12;17.10;;;10.20;;